Time;durP1;ratioP1;P1;durP2;ratioP2;P2;SDS_P1;SDS_P2;PMS_P1;PMS_P2;Temp;Humidity;BMP_temperature;BMP_pressure;BME280_temperature;BME280_humidity;BME280_pressure;Samples;Min_cycle;Max_cycle;Signal;HPM_P1;HPM_P2
2022/06/01 00:06:07;;;;;;;3.12;1.75;;;12.00;99.90;;;;;;6711928;88;20952;-76
2022/06/01 00:16:08;;;;;;;2.80;1.80;;;11.90;99.90;;;;;;6718013;88;20243;-77
2022/06/01 00:26:29;;;;;;;1.95;1.17;;;11.50;99.90;;;;;;6726149;77;20220;-79
2022/06/01 00:36:29;;;;;;;2.08;0.90;;;11.90;99.90;;;;;;6712682;88;20926;-78
2022/06/01 00:46:30;;;;;;;1.75;0.90;;;12.10;99.90;;;;;;6712423;88;20350;-79
2022/06/01 00:56:34;;;;;;;3.40;1.10;;;12.00;99.90;;;;;;6713775;88;20197;-78
2022/06/01 01:06:38;;;;;;;2.05;1.17;;;12.00;99.90;;;;;;6715026;88;20570;-78
2022/06/01 01:16:39;;;;;;;1.60;1.20;;;11.80;99.90;;;;;;6713374;88;20214;-79
2022/06/01 01:26:43;;;;;;;3.78;1.37;;;11.90;99.90;;;;;;6713085;88;20182;-78
2022/06/01 01:36:52;;;;;;;1.90;1.20;;;11.70;99.90;;;;;;6710106;88;20339;-79
2022/06/01 01:46:53;;;;;;;2.00;1.17;;;11.70;99.90;;;;;;6714884;88;20202;-79
2022/06/01 01:57:18;;;;;;;2.58;1.20;;;11.60;99.90;;;;;;6713893;88;20206;-79
2022/06/01 02:07:26;;;;;;;3.65;1.45;;;11.50;99.90;;;;;;6712495;88;20728;-79
2022/06/01 02:17:40;;;;;;;2.33;1.10;;;11.30;99.90;;;;;;6691691;88;20213;-79
2022/06/01 02:27:43;;;;;;;1.92;0.93;;;11.10;99.90;;;;;;6695837;88;20249;-78
2022/06/01 02:37:47;;;;;;;1.95;1.10;;;11.00;99.90;;;;;;6695576;88;20229;-79
2022/06/01 02:47:52;;;;;;;2.35;1.17;;;11.00;99.90;;;;;;6703996;88;21706;-80
2022/06/01 02:57:54;;;;;;;1.80;1.10;;;11.00;99.90;;;;;;6707440;88;20212;-79
2022/06/01 03:07:55;;;;;;;2.22;1.25;;;11.00;99.90;;;;;;6701236;88;20371;-79
2022/06/01 03:17:56;;;;;;;2.58;1.33;;;10.80;99.90;;;;;;6703437;88;20198;-80
2022/06/01 03:27:59;;;;;;;3.80;1.48;;;10.70;99.90;;;;;;6702835;88;20306;-79
2022/06/01 03:38:00;;;;;;;4.03;1.55;;;10.70;99.90;;;;;;6703936;88;20198;-79
2022/06/01 03:48:00;;;;;;;2.90;1.62;;;10.70;99.90;;;;;;6704100;89;20369;-79
2022/06/01 03:58:01;;;;;;;3.72;1.70;;;10.70;99.90;;;;;;6703284;88;20692;-78
2022/06/01 04:08:02;;;;;;;3.90;1.50;;;10.80;99.90;;;;;;6702645;89;20179;-79
2022/06/01 04:18:03;;;;;;;3.45;1.50;;;10.80;99.90;;;;;;6703570;88;20673;-79
2022/06/01 04:28:04;;;;;;;3.15;1.37;;;10.70;99.90;;;;;;6704814;88;20206;-78
2022/06/01 04:38:13;;;;;;;3.97;1.50;;;10.60;99.90;;;;;;6703540;88;20177;-79
2022/06/01 04:48:14;;;;;;;4.30;1.75;;;10.70;99.90;;;;;;6704391;88;20698;-78
2022/06/01 04:58:14;;;;;;;3.65;1.50;;;10.80;99.90;;;;;;6709024;88;20188;-79
2022/06/01 05:08:15;;;;;;;2.12;1.37;;;11.00;99.90;;;;;;6736925;88;20201;-80
2022/06/01 05:18:16;;;;;;;2.80;1.60;;;11.10;99.90;;;;;;6744304;88;20185;-79
2022/06/01 05:28:20;;;;;;;3.00;1.50;;;11.00;99.90;;;;;;6697326;88;20604;-79
2022/06/01 05:38:21;;;;;;;3.42;1.60;;;11.10;99.90;;;;;;6700394;88;20207;-79
2022/06/01 05:48:22;;;;;;;2.87;1.50;;;11.30;99.90;;;;;;6700950;88;20214;-80
2022/06/01 05:58:39;;;;;;;3.47;1.50;;;11.40;99.90;;;;;;6697558;88;20661;-86
2022/06/01 06:08:48;;;;;;;5.75;1.52;;;11.90;99.90;;;;;;6706043;88;20632;-79
2022/06/01 06:18:51;;;;;;;3.03;1.35;;;12.60;99.90;;;;;;6707789;88;20198;-81
2022/06/01 06:38:55;;;;;;;3.47;1.30;;;13.30;99.90;;;;;;6740262;88;20220;-79
2022/06/01 06:48:56;;;;;;;5.03;1.40;;;14.10;99.90;;;;;;6735128;88;20255;-79
2022/06/01 06:58:56;;;;;;;4.87;1.27;;;15.00;99.90;;;;;;6731045;88;20650;-77
2022/06/01 07:08:57;;;;;;;4.00;1.00;;;15.80;99.90;;;;;;6734370;88;20189;-76
2022/06/01 07:18:59;;;;;;;2.72;1.20;;;16.20;99.90;;;;;;6734502;88;20265;-76
2022/06/01 07:29:00;;;;;;;2.12;0.80;;;16.50;99.90;;;;;;6733699;88;20319;-77
2022/06/01 07:49:22;;;;;;;2.45;0.82;;;17.60;99.90;;;;;;6734108;88;20176;-76
2022/06/01 07:59:22;;;;;;;4.75;0.80;;;17.60;99.90;;;;;;6737220;88;20684;-77
2022/06/01 08:09:23;;;;;;;2.65;1.00;;;18.30;99.50;;;;;;6737313;88;20226;-77
2022/06/01 08:19:23;;;;;;;3.92;0.80;;;17.90;98.30;;;;;;6736309;88;20630;-77
2022/06/01 08:29:24;;;;;;;1.62;0.80;;;18.10;98.80;;;;;;6732408;88;20395;-77
2022/06/01 08:39:24;;;;;;;3.00;0.82;;;17.90;97.70;;;;;;6737364;88;20259;-76
2022/06/01 08:49:28;;;;;;;2.80;0.90;;;18.60;97.50;;;;;;6746381;88;20316;-77
2022/06/01 08:59:53;;;;;;;3.57;0.93;;;19.50;95.50;;;;;;6718345;88;20644;-76
2022/06/01 09:10:20;;;;;;;3.37;0.90;;;18.20;97.10;;;;;;6721951;88;20263;-76
2022/06/01 09:30:43;;;;;;;2.05;0.80;;;20.00;94.20;;;;;;6717382;88;20184;-76
2022/06/01 09:40:44;;;;;;;4.40;0.70;;;20.50;92.60;;;;;;6717181;88;20201;-76
2022/06/01 09:50:45;;;;;;;3.10;0.83;;;20.80;90.40;;;;;;6716953;88;20221;-78
2022/06/01 10:11:28;;;;;;;1.95;0.70;;;20.70;88.10;;;;;;6717147;88;20335;-76
2022/06/01 10:21:39;;;;;;;1.60;0.70;;;22.50;86.40;;;;;;6717129;88;20256;-77
2022/06/01 10:32:08;;;;;;;3.15;0.80;;;22.80;81.70;;;;;;6717522;88;20193;-77
2022/06/01 10:43:16;;;;;;;2.08;0.70;;;23.00;82.70;;;;;;6715892;88;20181;-77
2022/06/01 10:53:15;;;;;;;2.05;0.70;;;21.90;81.10;;;;;;6716556;88;20202;-77
2022/06/01 11:03:33;;;;;;;2.12;0.70;;;23.30;81.10;;;;;;6719858;88;20830;-79
2022/06/01 11:14:02;;;;;;;1.98;0.70;;;24.70;76.20;;;;;;6720764;88;20201;-81
2022/06/01 11:24:33;;;;;;;1.83;0.52;;;22.20;76.90;;;;;;6719162;88;20618;-78
2022/06/01 11:35:01;;;;;;;2.55;0.70;;;21.20;79.10;;;;;;6715090;88;20208;-77
2022/06/01 11:45:08;;;;;;;3.28;0.82;;;22.20;79.00;;;;;;6718102;88;20288;-78
2022/06/01 11:55:11;;;;;;;2.83;0.73;;;22.50;78.70;;;;;;6719474;88;20305;-79
2022/06/01 12:05:23;;;;;;;2.90;0.70;;;23.20;76.70;;;;;;6718761;88;20298;-78
2022/06/01 12:15:42;;;;;;;1.98;0.60;;;22.30;76.30;;;;;;6717456;88;20217;-77
2022/06/01 12:36:18;;;;;;;3.37;1.00;;;20.90;79.60;;;;;;6705813;88;20205;-79
2022/06/01 12:46:27;;;;;;;2.42;0.88;;;20.80;81.40;;;;;;6719485;88;20218;-79
2022/06/01 12:56:28;;;;;;;3.83;1.35;;;20.50;80.30;;;;;;6721038;88;20317;-77
2022/06/01 13:06:32;;;;;;;4.90;1.10;;;20.50;80.10;;;;;;6720615;88;20181;-77
2022/06/01 13:16:39;;;;;;;2.90;0.90;;;21.40;77.30;;;;;;6720742;88;20673;-77
2022/06/01 13:26:46;;;;;;;2.85;0.82;;;22.00;79.30;;;;;;6731198;88;20200;-78
2022/06/01 13:36:47;;;;;;;2.47;1.00;;;24.00;74.60;;;;;;6719664;88;20189;-78
2022/06/01 13:46:48;;;;;;;2.67;0.70;;;22.60;75.00;;;;;;6719142;88;20842;-79
2022/06/01 13:56:49;;;;;;;1.33;0.70;;;23.50;72.90;;;;;;6716622;88;20388;-78
2022/06/01 14:07:03;;;;;;;5.03;1.10;;;23.00;75.20;;;;;;6719948;88;20322;-78
2022/06/01 14:17:09;;;;;;;2.75;0.90;;;24.50;72.70;;;;;;6721486;88;20259;-78
2022/06/01 14:37:28;;;;;;;1.90;0.90;;;22.40;72.60;;;;;;6718264;88;20254;-79
2022/06/01 14:47:29;;;;;;;3.25;0.82;;;23.00;73.10;;;;;;6718516;88;20196;-79
2022/06/01 14:57:30;;;;;;;2.90;0.90;;;22.80;68.80;;;;;;6719060;88;20201;-77
2022/06/01 15:07:30;;;;;;;3.10;1.15;;;21.10;69.60;;;;;;6720742;88;20207;-78
2022/06/01 15:17:31;;;;;;;2.78;1.30;;;19.90;79.20;;;;;;6722080;88;20186;-78
2022/06/01 15:27:32;;;;;;;2.20;1.50;;;20.30;82.80;;;;;;6722227;88;20189;-78
2022/06/01 15:47:58;;;;;;;3.55;2.50;;;19.80;86.90;;;;;;6722569;88;20272;-78
2022/06/01 15:57:58;;;;;;;3.92;2.37;;;19.10;88.70;;;;;;6722832;88;20193;-78
2022/06/01 16:07:59;;;;;;;4.85;2.00;;;19.30;90.40;;;;;;6723165;88;20285;-80
2022/06/01 16:18:00;;;;;;;3.27;1.60;;;19.30;89.60;;;;;;6724506;88;20210;-79
2022/06/01 16:28:00;;;;;;;4.07;2.12;;;18.60;87.80;;;;;;6725951;88;20192;-77
2022/06/01 16:38:01;;;;;;;5.05;2.05;;;18.40;90.30;;;;;;6723360;88;20207;-78
2022/06/01 16:48:03;;;;;;;3.50;2.15;;;18.50;90.10;;;;;;6721832;88;20218;-77
2022/06/01 16:58:05;;;;;;;4.25;1.85;;;18.70;89.10;;;;;;6728782;88;20484;-77
2022/06/01 17:08:06;;;;;;;3.15;1.92;;;18.70;87.80;;;;;;6744810;88;20212;-79
2022/06/01 17:18:06;;;;;;;3.72;2.10;;;18.00;88.70;;;;;;6722014;88;20695;-78
2022/06/01 17:28:07;;;;;;;4.97;2.47;;;17.60;90.50;;;;;;6743479;88;20676;-78
2022/06/01 17:38:08;;;;;;;3.60;2.35;;;17.50;90.50;;;;;;6732888;88;20193;-78
2022/06/01 17:48:17;;;;;;;4.20;2.30;;;18.60;88.80;;;;;;6738349;88;20260;-78
2022/06/01 17:58:18;;;;;;;3.12;2.33;;;17.80;89.80;;;;;;6733442;88;20192;-78
2022/06/01 18:08:25;;;;;;;4.43;2.37;;;17.00;91.00;;;;;;6747575;88;20235;-77
2022/06/01 18:18:26;;;;;;;4.55;2.90;;;16.80;91.70;;;;;;6727586;88;20357;-77
2022/06/01 18:28:30;;;;;;;3.58;2.70;;;17.40;91.70;;;;;;6730740;88;20692;-76
2022/06/01 18:38:31;;;;;;;6.72;2.70;;;18.70;89.70;;;;;;6730970;88;20193;-77
2022/06/01 18:48:33;;;;;;;4.93;2.92;;;17.80;91.20;;;;;;6734553;88;20273;-77
2022/06/01 18:58:34;;;;;;;4.60;2.70;;;16.80;93.40;;;;;;6734546;88;20187;-77
2022/06/01 19:08:36;;;;;;;5.20;2.70;;;16.50;95.40;;;;;;6734403;88;20191;-77
2022/06/01 19:18:36;;;;;;;5.22;2.60;;;16.10;97.70;;;;;;6736950;88;20200;-79
2022/06/01 19:28:40;;;;;;;4.30;2.40;;;15.90;98.40;;;;;;6738951;88;20570;-77
2022/06/01 19:49:00;;;;;;;4.43;2.40;;;15.30;98.90;;;;;;6734808;88;20195;-77
2022/06/01 19:59:01;;;;;;;8.00;2.10;;;15.00;99.40;;;;;;6736513;88;20702;-77
2022/06/01 20:09:02;;;;;;;2.50;1.80;;;14.90;99.80;;;;;;6736747;88;20204;-77
2022/06/01 20:19:03;;;;;;;4.18;1.80;;;14.50;99.90;;;;;;6742825;88;20176;-76
2022/06/01 20:29:05;;;;;;;3.25;2.00;;;14.30;99.90;;;;;;6735885;88;20276;-77
2022/06/01 20:39:05;;;;;;;2.92;1.90;;;14.20;99.90;;;;;;6719387;88;20197;-76
2022/06/01 20:49:08;;;;;;;2.87;1.90;;;14.00;99.90;;;;;;6729229;88;20242;-76
2022/06/01 20:59:09;;;;;;;3.65;2.20;;;13.80;99.90;;;;;;6737344;88;20516;-76
2022/06/01 21:09:10;;;;;;;3.65;1.90;;;13.80;99.90;;;;;;6748147;88;20204;-76
2022/06/01 21:19:10;;;;;;;2.10;1.60;;;13.70;99.90;;;;;;6729439;88;20182;-76
2022/06/01 21:29:11;;;;;;;2.65;1.48;;;13.80;99.90;;;;;;6728861;88;20274;-76
2022/06/01 21:39:13;;;;;;;2.35;1.40;;;13.60;99.90;;;;;;6735309;88;20366;-76
2022/06/01 21:49:14;;;;;;;2.85;1.50;;;13.30;99.90;;;;;;6735092;88;20644;-77
2022/06/01 22:09:18;;;;;;;3.47;1.52;;;13.10;99.90;;;;;;6749437;88;21165;-81
2022/06/01 22:19:18;;;;;;;3.37;1.90;;;13.10;99.90;;;;;;6743739;88;20715;-81
2022/06/01 22:29:19;;;;;;;3.45;2.30;;;12.90;99.90;;;;;;6747172;88;20234;-80
2022/06/01 22:39:19;;;;;;;6.50;2.55;;;12.70;99.90;;;;;;6752589;88;20217;-80
2022/06/01 22:49:21;;;;;;;4.53;2.47;;;12.70;99.90;;;;;;6750255;88;20222;-78
2022/06/01 22:59:22;;;;;;;4.10;2.92;;;12.50;99.90;;;;;;6747848;88;20197;-78
2022/06/01 23:09:23;;;;;;;3.87;2.58;;;12.40;99.90;;;;;;6749193;88;20198;-79
2022/06/01 23:19:23;;;;;;;3.45;2.42;;;12.30;99.90;;;;;;6746027;88;20331;-80
2022/06/01 23:29:31;;;;;;;6.55;2.75;;;12.20;99.90;;;;;;6744238;88;20197;-79
2022/06/01 23:39:56;;;;;;;4.35;2.65;;;12.20;99.90;;;;;;6727386;88;20203;-83
2022/06/01 23:50:08;;;;;;;5.45;2.37;;;12.30;99.90;;;;;;6731017;88;20592;-78
